sensor_id;sensor_type;location;lat;lon;timestamp;P1;durP1;ratioP1;P2;durP2;ratioP2
58864;SDS011;45702;52.982;6.658;2023-05-10T00:01:23;32.53;;;14.90;;
58864;SDS011;45702;52.982;6.658;2023-05-10T00:03:49;26.13;;;14.10;;
58864;SDS011;45702;52.982;6.658;2023-05-10T00:06:14;28.80;;;14.43;;
58864;SDS011;45702;52.982;6.658;2023-05-10T00:08:40;40.72;;;16.27;;
58864;SDS011;45702;52.982;6.658;2023-05-10T00:11:06;36.08;;;16.65;;
58864;SDS011;45702;52.982;6.658;2023-05-10T00:13:32;40.85;;;17.45;;
58864;SDS011;45702;52.982;6.658;2023-05-10T00:15:58;34.35;;;16.88;;
58864;SDS011;45702;52.982;6.658;2023-05-10T00:18:23;37.33;;;17.00;;
58864;SDS011;45702;52.982;6.658;2023-05-10T00:20:49;38.20;;;17.48;;
58864;SDS011;45702;52.982;6.658;2023-05-10T00:23:15;35.20;;;16.77;;
58864;SDS011;45702;52.982;6.658;2023-05-10T00:25:40;33.22;;;16.67;;
58864;SDS011;45702;52.982;6.658;2023-05-10T00:28:06;43.63;;;17.65;;
58864;SDS011;45702;52.982;6.658;2023-05-10T00:30:32;45.78;;;19.13;;
58864;SDS011;45702;52.982;6.658;2023-05-10T00:32:58;35.63;;;17.00;;
58864;SDS011;45702;52.982;6.658;2023-05-10T00:35:23;40.20;;;16.80;;
58864;SDS011;45702;52.982;6.658;2023-05-10T00:37:49;36.90;;;16.90;;
58864;SDS011;45702;52.982;6.658;2023-05-10T00:40:15;38.38;;;17.17;;
58864;SDS011;45702;52.982;6.658;2023-05-10T00:42:41;35.97;;;15.77;;
58864;SDS011;45702;52.982;6.658;2023-05-10T00:45:06;33.53;;;15.25;;
58864;SDS011;45702;52.982;6.658;2023-05-10T00:47:33;33.05;;;15.70;;
58864;SDS011;45702;52.982;6.658;2023-05-10T00:49:59;34.33;;;15.75;;
58864;SDS011;45702;52.982;6.658;2023-05-10T00:52:28;33.65;;;15.30;;
58864;SDS011;45702;52.982;6.658;2023-05-10T00:54:55;35.45;;;15.40;;
58864;SDS011;45702;52.982;6.658;2023-05-10T00:57:21;37.75;;;15.45;;
58864;SDS011;45702;52.982;6.658;2023-05-10T00:59:48;30.55;;;14.20;;
58864;SDS011;45702;52.982;6.658;2023-05-10T01:02:13;37.55;;;15.55;;
58864;SDS011;45702;52.982;6.658;2023-05-10T01:04:39;39.70;;;16.25;;
58864;SDS011;45702;52.982;6.658;2023-05-10T01:07:05;34.13;;;14.27;;
58864;SDS011;45702;52.982;6.658;2023-05-10T01:09:31;30.02;;;14.40;;
58864;SDS011;45702;52.982;6.658;2023-05-10T01:11:57;35.42;;;15.45;;
58864;SDS011;45702;52.982;6.658;2023-05-10T01:14:24;37.72;;;15.52;;
58864;SDS011;45702;52.982;6.658;2023-05-10T01:16:51;32.55;;;14.88;;
58864;SDS011;45702;52.982;6.658;2023-05-10T01:19:19;34.22;;;14.85;;
58864;SDS011;45702;52.982;6.658;2023-05-10T01:24:54;40.72;;;15.57;;
58864;SDS011;45702;52.982;6.658;2023-05-10T01:33:15;39.67;;;15.73;;
58864;SDS011;45702;52.982;6.658;2023-05-10T01:36:17;34.10;;;14.98;;
58864;SDS011;45702;52.982;6.658;2023-05-10T01:38:57;30.25;;;14.27;;
58864;SDS011;45702;52.982;6.658;2023-05-10T01:41:36;35.42;;;14.32;;
58864;SDS011;45702;52.982;6.658;2023-05-10T01:47:25;37.63;;;15.18;;
58864;SDS011;45702;52.982;6.658;2023-05-10T01:50:18;37.03;;;15.20;;
58864;SDS011;45702;52.982;6.658;2023-05-10T01:52:50;36.35;;;14.93;;
58864;SDS011;45702;52.982;6.658;2023-05-10T01:55:20;39.22;;;15.23;;
58864;SDS011;45702;52.982;6.658;2023-05-10T01:57:48;38.38;;;15.77;;
58864;SDS011;45702;52.982;6.658;2023-05-10T02:00:20;34.72;;;14.98;;
58864;SDS011;45702;52.982;6.658;2023-05-10T02:02:48;32.88;;;14.40;;
58864;SDS011;45702;52.982;6.658;2023-05-10T02:05:16;34.20;;;14.50;;
58864;SDS011;45702;52.982;6.658;2023-05-10T02:07:42;37.53;;;15.00;;
58864;SDS011;45702;52.982;6.658;2023-05-10T02:10:09;39.63;;;15.38;;
58864;SDS011;45702;52.982;6.658;2023-05-10T02:12:36;36.25;;;15.27;;
58864;SDS011;45702;52.982;6.658;2023-05-10T02:15:06;33.20;;;14.48;;
58864;SDS011;45702;52.982;6.658;2023-05-10T02:17:33;38.58;;;15.23;;
58864;SDS011;45702;52.982;6.658;2023-05-10T02:20:01;39.08;;;15.48;;
58864;SDS011;45702;52.982;6.658;2023-05-10T02:22:47;40.97;;;15.60;;
58864;SDS011;45702;52.982;6.658;2023-05-10T02:25:15;44.92;;;16.33;;
58864;SDS011;45702;52.982;6.658;2023-05-10T02:30:10;46.72;;;16.83;;
58864;SDS011;45702;52.982;6.658;2023-05-10T02:32:36;39.95;;;16.00;;
58864;SDS011;45702;52.982;6.658;2023-05-10T02:35:03;44.53;;;17.25;;
58864;SDS011;45702;52.982;6.658;2023-05-10T02:37:29;42.83;;;16.45;;
58864;SDS011;45702;52.982;6.658;2023-05-10T02:39:56;50.63;;;16.95;;
58864;SDS011;45702;52.982;6.658;2023-05-10T02:42:23;41.20;;;16.42;;
58864;SDS011;45702;52.982;6.658;2023-05-10T02:44:52;43.35;;;16.77;;
58864;SDS011;45702;52.982;6.658;2023-05-10T02:47:21;40.67;;;17.05;;
58864;SDS011;45702;52.982;6.658;2023-05-10T02:49:46;44.80;;;16.77;;
58864;SDS011;45702;52.982;6.658;2023-05-10T02:52:13;51.40;;;17.65;;
58864;SDS011;45702;52.982;6.658;2023-05-10T02:54:44;46.80;;;17.30;;
58864;SDS011;45702;52.982;6.658;2023-05-10T02:57:17;45.80;;;16.92;;
58864;SDS011;45702;52.982;6.658;2023-05-10T02:59:57;47.65;;;17.00;;
58864;SDS011;45702;52.982;6.658;2023-05-10T03:02:23;49.55;;;17.83;;
58864;SDS011;45702;52.982;6.658;2023-05-10T03:04:49;45.67;;;17.08;;
58864;SDS011;45702;52.982;6.658;2023-05-10T03:07:14;50.00;;;17.48;;
58864;SDS011;45702;52.982;6.658;2023-05-10T03:09:41;41.10;;;16.45;;
58864;SDS011;45702;52.982;6.658;2023-05-10T03:12:14;42.55;;;17.08;;
58864;SDS011;45702;52.982;6.658;2023-05-10T03:20:16;47.08;;;17.80;;
58864;SDS011;45702;52.982;6.658;2023-05-10T03:23:00;39.55;;;16.55;;
58864;SDS011;45702;52.982;6.658;2023-05-10T03:25:31;40.58;;;17.00;;
58864;SDS011;45702;52.982;6.658;2023-05-10T03:27:58;39.15;;;17.02;;
58864;SDS011;45702;52.982;6.658;2023-05-10T03:30:26;36.50;;;16.80;;
58864;SDS011;45702;52.982;6.658;2023-05-10T03:32:53;40.55;;;17.15;;
58864;SDS011;45702;52.982;6.658;2023-05-10T03:35:19;39.58;;;16.33;;
58864;SDS011;45702;52.982;6.658;2023-05-10T03:37:44;38.50;;;16.83;;
58864;SDS011;45702;52.982;6.658;2023-05-10T03:40:10;53.38;;;19.15;;
58864;SDS011;45702;52.982;6.658;2023-05-10T03:42:36;42.55;;;17.13;;
58864;SDS011;45702;52.982;6.658;2023-05-10T03:45:03;41.67;;;17.55;;
58864;SDS011;45702;52.982;6.658;2023-05-10T03:47:28;43.40;;;18.13;;
58864;SDS011;45702;52.982;6.658;2023-05-10T03:49:54;45.40;;;18.13;;
58864;SDS011;45702;52.982;6.658;2023-05-10T03:52:20;41.65;;;17.38;;
58864;SDS011;45702;52.982;6.658;2023-05-10T03:54:46;35.80;;;16.20;;
58864;SDS011;45702;52.982;6.658;2023-05-10T03:57:11;48.38;;;18.00;;
58864;SDS011;45702;52.982;6.658;2023-05-10T03:59:37;43.25;;;17.15;;
58864;SDS011;45702;52.982;6.658;2023-05-10T04:02:03;40.50;;;16.10;;
58864;SDS011;45702;52.982;6.658;2023-05-10T04:04:28;38.22;;;15.25;;
58864;SDS011;45702;52.982;6.658;2023-05-10T04:06:54;33.97;;;15.05;;
58864;SDS011;45702;52.982;6.658;2023-05-10T04:09:20;35.60;;;15.68;;
58864;SDS011;45702;52.982;6.658;2023-05-10T04:11:45;34.05;;;15.00;;
58864;SDS011;45702;52.982;6.658;2023-05-10T04:14:11;34.30;;;14.80;;
58864;SDS011;45702;52.982;6.658;2023-05-10T04:16:37;30.52;;;14.20;;
58864;SDS011;45702;52.982;6.658;2023-05-10T04:19:02;32.17;;;14.30;;
58864;SDS011;45702;52.982;6.658;2023-05-10T04:21:28;31.60;;;14.30;;
58864;SDS011;45702;52.982;6.658;2023-05-10T04:23:54;32.58;;;14.07;;
58864;SDS011;45702;52.982;6.658;2023-05-10T04:26:20;34.25;;;14.00;;
58864;SDS011;45702;52.982;6.658;2023-05-10T04:28:47;34.55;;;13.63;;
58864;SDS011;45702;52.982;6.658;2023-05-10T04:31:12;30.45;;;13.65;;
58864;SDS011;45702;52.982;6.658;2023-05-10T04:33:38;27.73;;;13.27;;
58864;SDS011;45702;52.982;6.658;2023-05-10T04:36:04;23.10;;;12.13;;
58864;SDS011;45702;52.982;6.658;2023-05-10T04:38:30;29.02;;;13.70;;
58864;SDS011;45702;52.982;6.658;2023-05-10T04:41:08;26.80;;;13.23;;
58864;SDS011;45702;52.982;6.658;2023-05-10T04:43:35;24.90;;;11.85;;
58864;SDS011;45702;52.982;6.658;2023-05-10T04:46:02;26.55;;;12.93;;
58864;SDS011;45702;52.982;6.658;2023-05-10T04:48:28;26.27;;;12.25;;
58864;SDS011;45702;52.982;6.658;2023-05-10T04:50:54;31.20;;;13.70;;
58864;SDS011;45702;52.982;6.658;2023-05-10T04:53:20;27.98;;;12.80;;
58864;SDS011;45702;52.982;6.658;2023-05-10T04:55:58;28.70;;;13.23;;
58864;SDS011;45702;52.982;6.658;2023-05-10T04:58:23;24.58;;;12.15;;
58864;SDS011;45702;52.982;6.658;2023-05-10T05:00:49;26.77;;;12.25;;
58864;SDS011;45702;52.982;6.658;2023-05-10T05:03:15;26.65;;;12.50;;
58864;SDS011;45702;52.982;6.658;2023-05-10T05:05:41;25.65;;;11.88;;
58864;SDS011;45702;52.982;6.658;2023-05-10T05:08:07;26.70;;;12.10;;
58864;SDS011;45702;52.982;6.658;2023-05-10T05:10:32;24.20;;;11.68;;
58864;SDS011;45702;52.982;6.658;2023-05-10T05:12:58;25.20;;;12.38;;
58864;SDS011;45702;52.982;6.658;2023-05-10T05:15:23;25.40;;;11.88;;
58864;SDS011;45702;52.982;6.658;2023-05-10T05:17:49;24.17;;;11.43;;
58864;SDS011;45702;52.982;6.658;2023-05-10T05:20:15;21.20;;;11.05;;
58864;SDS011;45702;52.982;6.658;2023-05-10T05:22:41;23.25;;;11.57;;
58864;SDS011;45702;52.982;6.658;2023-05-10T05:25:06;26.85;;;11.98;;
58864;SDS011;45702;52.982;6.658;2023-05-10T05:27:32;21.08;;;11.57;;
58864;SDS011;45702;52.982;6.658;2023-05-10T05:29:58;22.05;;;10.98;;
58864;SDS011;45702;52.982;6.658;2023-05-10T05:32:24;24.55;;;11.18;;
58864;SDS011;45702;52.982;6.658;2023-05-10T05:34:51;21.15;;;10.85;;
58864;SDS011;45702;52.982;6.658;2023-05-10T05:37:17;21.58;;;10.80;;
58864;SDS011;45702;52.982;6.658;2023-05-10T05:39:44;21.17;;;10.40;;
58864;SDS011;45702;52.982;6.658;2023-05-10T05:42:10;18.77;;;9.70;;
58864;SDS011;45702;52.982;6.658;2023-05-10T05:44:37;18.95;;;10.27;;
58864;SDS011;45702;52.982;6.658;2023-05-10T05:47:03;23.15;;;10.93;;
58864;SDS011;45702;52.982;6.658;2023-05-10T05:49:29;19.48;;;10.68;;
58864;SDS011;45702;52.982;6.658;2023-05-10T05:52:02;20.30;;;10.18;;
58864;SDS011;45702;52.982;6.658;2023-05-10T05:54:29;20.63;;;11.00;;
58864;SDS011;45702;52.982;6.658;2023-05-10T05:56:56;20.65;;;10.48;;
58864;SDS011;45702;52.982;6.658;2023-05-10T05:59:25;19.27;;;10.18;;
58864;SDS011;45702;52.982;6.658;2023-05-10T06:01:51;18.35;;;10.10;;
58864;SDS011;45702;52.982;6.658;2023-05-10T06:04:17;19.23;;;9.85;;
58864;SDS011;45702;52.982;6.658;2023-05-10T06:06:43;16.33;;;8.98;;
58864;SDS011;45702;52.982;6.658;2023-05-10T06:09:09;20.67;;;10.13;;
58864;SDS011;45702;52.982;6.658;2023-05-10T06:11:35;20.63;;;9.55;;
58864;SDS011;45702;52.982;6.658;2023-05-10T06:14:01;14.73;;;8.43;;
58864;SDS011;45702;52.982;6.658;2023-05-10T06:16:28;13.57;;;8.52;;
58864;SDS011;45702;52.982;6.658;2023-05-10T06:18:54;15.57;;;7.90;;
58864;SDS011;45702;52.982;6.658;2023-05-10T06:21:20;12.40;;;7.70;;
58864;SDS011;45702;52.982;6.658;2023-05-10T06:23:46;14.50;;;7.90;;
58864;SDS011;45702;52.982;6.658;2023-05-10T06:26:11;13.27;;;7.28;;
58864;SDS011;45702;52.982;6.658;2023-05-10T06:28:38;12.65;;;7.38;;
58864;SDS011;45702;52.982;6.658;2023-05-10T06:31:04;12.52;;;7.57;;
58864;SDS011;45702;52.982;6.658;2023-05-10T06:33:31;12.55;;;7.60;;
58864;SDS011;45702;52.982;6.658;2023-05-10T06:35:57;11.80;;;6.72;;
58864;SDS011;45702;52.982;6.658;2023-05-10T06:38:22;11.65;;;6.97;;
58864;SDS011;45702;52.982;6.658;2023-05-10T06:40:48;12.88;;;7.05;;
58864;SDS011;45702;52.982;6.658;2023-05-10T06:43:14;15.15;;;7.68;;
58864;SDS011;45702;52.982;6.658;2023-05-10T06:45:40;13.60;;;6.35;;
58864;SDS011;45702;52.982;6.658;2023-05-10T06:48:06;10.23;;;5.70;;
58864;SDS011;45702;52.982;6.658;2023-05-10T06:50:32;11.50;;;5.78;;
58864;SDS011;45702;52.982;6.658;2023-05-10T06:52:58;11.02;;;5.90;;
58864;SDS011;45702;52.982;6.658;2023-05-10T06:55:24;12.10;;;6.35;;
58864;SDS011;45702;52.982;6.658;2023-05-10T06:57:50;11.57;;;5.75;;
58864;SDS011;45702;52.982;6.658;2023-05-10T07:00:16;9.07;;;4.22;;
58864;SDS011;45702;52.982;6.658;2023-05-10T07:02:43;7.82;;;4.35;;
58864;SDS011;45702;52.982;6.658;2023-05-10T07:05:08;6.85;;;3.45;;
58864;SDS011;45702;52.982;6.658;2023-05-10T07:07:34;4.20;;;2.67;;
58864;SDS011;45702;52.982;6.658;2023-05-10T07:10:00;4.05;;;2.50;;
58864;SDS011;45702;52.982;6.658;2023-05-10T07:12:26;2.83;;;2.00;;
58864;SDS011;45702;52.982;6.658;2023-05-10T07:14:51;3.03;;;1.90;;
58864;SDS011;45702;52.982;6.658;2023-05-10T07:17:17;2.20;;;1.40;;
58864;SDS011;45702;52.982;6.658;2023-05-10T07:19:43;4.40;;;1.30;;
58864;SDS011;45702;52.982;6.658;2023-05-10T07:22:08;2.08;;;1.13;;
58864;SDS011;45702;52.982;6.658;2023-05-10T07:24:34;1.10;;;0.90;;
58864;SDS011;45702;52.982;6.658;2023-05-10T07:27:00;1.30;;;0.93;;
58864;SDS011;45702;52.982;6.658;2023-05-10T07:29:26;1.00;;;0.80;;
58864;SDS011;45702;52.982;6.658;2023-05-10T07:31:51;0.90;;;0.70;;
58864;SDS011;45702;52.982;6.658;2023-05-10T07:34:18;0.85;;;0.80;;
58864;SDS011;45702;52.982;6.658;2023-05-10T07:36:43;1.15;;;0.90;;
58864;SDS011;45702;52.982;6.658;2023-05-10T07:39:09;1.13;;;1.00;;
58864;SDS011;45702;52.982;6.658;2023-05-10T07:41:35;2.35;;;1.35;;
58864;SDS011;45702;52.982;6.658;2023-05-10T07:44:02;3.60;;;1.63;;
58864;SDS011;45702;52.982;6.658;2023-05-10T07:46:28;5.28;;;2.17;;
58864;SDS011;45702;52.982;6.658;2023-05-10T07:48:54;3.05;;;2.05;;
58864;SDS011;45702;52.982;6.658;2023-05-10T07:51:20;5.80;;;2.47;;
58864;SDS011;45702;52.982;6.658;2023-05-10T07:53:47;5.47;;;2.70;;
58864;SDS011;45702;52.982;6.658;2023-05-10T07:56:29;3.97;;;2.65;;
58864;SDS011;45702;52.982;6.658;2023-05-10T07:58:57;3.78;;;2.50;;
58864;SDS011;45702;52.982;6.658;2023-05-10T08:01:29;4.53;;;2.55;;
58864;SDS011;45702;52.982;6.658;2023-05-10T08:03:57;3.70;;;2.20;;
58864;SDS011;45702;52.982;6.658;2023-05-10T08:06:22;4.63;;;2.08;;
58864;SDS011;45702;52.982;6.658;2023-05-10T08:08:48;2.83;;;1.90;;
58864;SDS011;45702;52.982;6.658;2023-05-10T08:11:37;3.35;;;2.30;;
58864;SDS011;45702;52.982;6.658;2023-05-10T08:14:03;2.40;;;1.90;;
58864;SDS011;45702;52.982;6.658;2023-05-10T08:16:29;3.35;;;2.08;;
58864;SDS011;45702;52.982;6.658;2023-05-10T08:19:03;3.60;;;2.10;;
58864;SDS011;45702;52.982;6.658;2023-05-10T08:21:29;4.00;;;2.50;;
58864;SDS011;45702;52.982;6.658;2023-05-10T08:23:56;3.20;;;2.42;;
58864;SDS011;45702;52.982;6.658;2023-05-10T08:26:22;3.83;;;2.20;;
58864;SDS011;45702;52.982;6.658;2023-05-10T08:28:48;5.13;;;2.80;;
58864;SDS011;45702;52.982;6.658;2023-05-10T08:31:14;5.10;;;3.38;;
58864;SDS011;45702;52.982;6.658;2023-05-10T08:33:40;6.00;;;4.00;;
58864;SDS011;45702;52.982;6.658;2023-05-10T08:36:06;6.03;;;3.55;;
58864;SDS011;45702;52.982;6.658;2023-05-10T08:38:31;7.10;;;4.25;;
58864;SDS011;45702;52.982;6.658;2023-05-10T08:40:57;7.25;;;4.43;;
58864;SDS011;45702;52.982;6.658;2023-05-10T08:43:28;6.55;;;4.25;;
58864;SDS011;45702;52.982;6.658;2023-05-10T08:45:55;9.48;;;5.10;;
58864;SDS011;45702;52.982;6.658;2023-05-10T08:48:22;9.00;;;5.18;;
58864;SDS011;45702;52.982;6.658;2023-05-10T08:50:49;11.05;;;6.30;;
58864;SDS011;45702;52.982;6.658;2023-05-10T08:53:19;10.20;;;6.30;;
58864;SDS011;45702;52.982;6.658;2023-05-10T08:55:47;9.77;;;5.15;;
58864;SDS011;45702;52.982;6.658;2023-05-10T08:58:15;12.10;;;5.82;;
58864;SDS011;45702;52.982;6.658;2023-05-10T09:00:40;9.15;;;5.43;;
58864;SDS011;45702;52.982;6.658;2023-05-10T09:03:06;9.50;;;5.68;;
58864;SDS011;45702;52.982;6.658;2023-05-10T09:05:32;7.85;;;5.30;;
58864;SDS011;45702;52.982;6.658;2023-05-10T09:07:57;9.23;;;5.20;;
58864;SDS011;45702;52.982;6.658;2023-05-10T09:10:25;9.30;;;5.55;;
58864;SDS011;45702;52.982;6.658;2023-05-10T09:12:53;12.13;;;5.78;;
58864;SDS011;45702;52.982;6.658;2023-05-10T09:15:20;9.80;;;5.55;;
58864;SDS011;45702;52.982;6.658;2023-05-10T09:17:46;8.93;;;5.15;;
58864;SDS011;45702;52.982;6.658;2023-05-10T09:20:14;8.55;;;4.70;;
58864;SDS011;45702;52.982;6.658;2023-05-10T09:22:39;7.70;;;4.40;;
58864;SDS011;45702;52.982;6.658;2023-05-10T09:25:15;4.78;;;3.58;;
58864;SDS011;45702;52.982;6.658;2023-05-10T09:27:43;6.28;;;3.97;;
58864;SDS011;45702;52.982;6.658;2023-05-10T09:30:11;7.28;;;4.60;;
58864;SDS011;45702;52.982;6.658;2023-05-10T09:35:11;8.68;;;5.20;;
58864;SDS011;45702;52.982;6.658;2023-05-10T09:37:44;11.55;;;5.88;;
58864;SDS011;45702;52.982;6.658;2023-05-10T09:40:11;12.13;;;6.25;;
58864;SDS011;45702;52.982;6.658;2023-05-10T09:42:40;11.20;;;6.33;;
58864;SDS011;45702;52.982;6.658;2023-05-10T09:45:07;10.75;;;6.22;;
58864;SDS011;45702;52.982;6.658;2023-05-10T09:47:36;15.73;;;7.72;;
58864;SDS011;45702;52.982;6.658;2023-05-10T09:50:02;20.80;;;7.70;;
58864;SDS011;45702;52.982;6.658;2023-05-10T09:52:30;20.08;;;9.10;;
58864;SDS011;45702;52.982;6.658;2023-05-10T09:55:10;16.92;;;8.07;;
58864;SDS011;45702;52.982;6.658;2023-05-10T09:57:36;17.42;;;8.07;;
58864;SDS011;45702;52.982;6.658;2023-05-10T10:00:01;18.02;;;8.45;;
58864;SDS011;45702;52.982;6.658;2023-05-10T10:02:30;15.82;;;8.35;;
58864;SDS011;45702;52.982;6.658;2023-05-10T10:04:58;17.38;;;9.00;;
58864;SDS011;45702;52.982;6.658;2023-05-10T10:07:30;14.57;;;8.00;;
58864;SDS011;45702;52.982;6.658;2023-05-10T10:09:57;13.95;;;7.60;;
58864;SDS011;45702;52.982;6.658;2023-05-10T10:12:24;14.93;;;8.27;;
58864;SDS011;45702;52.982;6.658;2023-05-10T10:14:50;12.90;;;7.88;;
58864;SDS011;45702;52.982;6.658;2023-05-10T10:17:17;16.40;;;8.15;;
58864;SDS011;45702;52.982;6.658;2023-05-10T10:19:42;14.75;;;8.48;;
58864;SDS011;45702;52.982;6.658;2023-05-10T10:22:09;13.20;;;7.63;;
58864;SDS011;45702;52.982;6.658;2023-05-10T10:24:37;17.00;;;7.97;;
58864;SDS011;45702;52.982;6.658;2023-05-10T10:27:12;17.38;;;8.30;;
58864;SDS011;45702;52.982;6.658;2023-05-10T10:29:58;18.15;;;8.95;;
58864;SDS011;45702;52.982;6.658;2023-05-10T10:32:45;17.15;;;8.75;;
58864;SDS011;45702;52.982;6.658;2023-05-10T10:35:35;17.27;;;8.63;;
58864;SDS011;45702;52.982;6.658;2023-05-10T10:38:01;19.63;;;8.70;;
58864;SDS011;45702;52.982;6.658;2023-05-10T10:40:28;18.63;;;8.55;;
58864;SDS011;45702;52.982;6.658;2023-05-10T10:42:54;17.75;;;9.50;;
58864;SDS011;45702;52.982;6.658;2023-05-10T10:45:21;16.30;;;8.77;;
58864;SDS011;45702;52.982;6.658;2023-05-10T10:47:47;22.75;;;10.15;;
58864;SDS011;45702;52.982;6.658;2023-05-10T10:50:13;18.05;;;9.50;;
58864;SDS011;45702;52.982;6.658;2023-05-10T10:52:41;19.20;;;9.77;;
58864;SDS011;45702;52.982;6.658;2023-05-10T10:57:50;17.23;;;8.68;;
58864;SDS011;45702;52.982;6.658;2023-05-10T11:02:51;17.85;;;8.93;;
58864;SDS011;45702;52.982;6.658;2023-05-10T11:05:43;18.25;;;9.35;;
58864;SDS011;45702;52.982;6.658;2023-05-10T11:11:09;15.10;;;8.10;;
58864;SDS011;45702;52.982;6.658;2023-05-10T11:13:40;20.20;;;9.23;;
58864;SDS011;45702;52.982;6.658;2023-05-10T11:18:39;17.40;;;8.45;;
58864;SDS011;45702;52.982;6.658;2023-05-10T11:21:07;17.83;;;8.70;;
58864;SDS011;45702;52.982;6.658;2023-05-10T11:23:48;17.73;;;8.45;;
58864;SDS011;45702;52.982;6.658;2023-05-10T11:26:15;14.88;;;7.95;;
58864;SDS011;45702;52.982;6.658;2023-05-10T11:28:44;16.25;;;8.27;;
58864;SDS011;45702;52.982;6.658;2023-05-10T11:31:15;16.45;;;8.07;;
58864;SDS011;45702;52.982;6.658;2023-05-10T11:33:45;17.83;;;8.35;;
58864;SDS011;45702;52.982;6.658;2023-05-10T11:36:16;19.23;;;8.45;;
58864;SDS011;45702;52.982;6.658;2023-05-10T11:38:43;14.35;;;7.72;;
58864;SDS011;45702;52.982;6.658;2023-05-10T11:41:09;18.25;;;8.25;;
58864;SDS011;45702;52.982;6.658;2023-05-10T11:43:36;16.73;;;8.13;;
58864;SDS011;45702;52.982;6.658;2023-05-10T11:46:06;14.57;;;7.43;;
58864;SDS011;45702;52.982;6.658;2023-05-10T11:48:36;14.68;;;8.00;;
58864;SDS011;45702;52.982;6.658;2023-05-10T11:51:04;17.77;;;8.55;;
58864;SDS011;45702;52.982;6.658;2023-05-10T11:53:30;17.13;;;8.48;;
58864;SDS011;45702;52.982;6.658;2023-05-10T11:56:04;12.97;;;7.30;;
58864;SDS011;45702;52.982;6.658;2023-05-10T11:58:31;14.27;;;6.97;;
58864;SDS011;45702;52.982;6.658;2023-05-10T12:00:58;15.02;;;7.30;;
58864;SDS011;45702;52.982;6.658;2023-05-10T12:03:25;15.02;;;7.60;;
58864;SDS011;45702;52.982;6.658;2023-05-10T12:05:54;14.00;;;7.45;;
58864;SDS011;45702;52.982;6.658;2023-05-10T12:08:24;17.65;;;8.35;;
58864;SDS011;45702;52.982;6.658;2023-05-10T12:10:51;15.55;;;8.20;;
58864;SDS011;45702;52.982;6.658;2023-05-10T12:13:18;16.67;;;8.13;;
58864;SDS011;45702;52.982;6.658;2023-05-10T12:15:45;19.40;;;8.73;;
58864;SDS011;45702;52.982;6.658;2023-05-10T12:18:12;18.55;;;9.25;;
58864;SDS011;45702;52.982;6.658;2023-05-10T12:20:39;18.75;;;8.55;;
58864;SDS011;45702;52.982;6.658;2023-05-10T12:23:05;17.40;;;9.40;;
58864;SDS011;45702;52.982;6.658;2023-05-10T12:25:33;18.33;;;9.20;;
58864;SDS011;45702;52.982;6.658;2023-05-10T12:28:02;18.13;;;9.45;;
58864;SDS011;45702;52.982;6.658;2023-05-10T12:30:30;17.33;;;9.32;;
58864;SDS011;45702;52.982;6.658;2023-05-10T12:33:10;19.50;;;8.77;;
58864;SDS011;45702;52.982;6.658;2023-05-10T12:36:10;18.77;;;8.70;;
58864;SDS011;45702;52.982;6.658;2023-05-10T12:38:35;17.90;;;8.80;;
58864;SDS011;45702;52.982;6.658;2023-05-10T12:41:12;20.45;;;8.85;;
58864;SDS011;45702;52.982;6.658;2023-05-10T12:43:39;21.75;;;8.90;;
58864;SDS011;45702;52.982;6.658;2023-05-10T12:46:09;19.20;;;8.70;;
58864;SDS011;45702;52.982;6.658;2023-05-10T12:48:40;14.48;;;7.90;;
58864;SDS011;45702;52.982;6.658;2023-05-10T12:51:06;22.08;;;8.95;;
58864;SDS011;45702;52.982;6.658;2023-05-10T12:53:42;14.88;;;8.65;;
58864;SDS011;45702;52.982;6.658;2023-05-10T12:58:36;18.75;;;9.32;;
58864;SDS011;45702;52.982;6.658;2023-05-10T13:01:01;21.27;;;9.10;;
58864;SDS011;45702;52.982;6.658;2023-05-10T13:03:27;17.40;;;8.43;;
58864;SDS011;45702;52.982;6.658;2023-05-10T13:05:53;19.90;;;9.05;;
58864;SDS011;45702;52.982;6.658;2023-05-10T13:08:19;18.83;;;8.68;;
58864;SDS011;45702;52.982;6.658;2023-05-10T13:10:45;17.67;;;8.68;;
58864;SDS011;45702;52.982;6.658;2023-05-10T13:13:11;18.20;;;8.50;;
58864;SDS011;45702;52.982;6.658;2023-05-10T13:15:36;15.20;;;8.23;;
58864;SDS011;45702;52.982;6.658;2023-05-10T13:18:02;19.60;;;8.70;;
58864;SDS011;45702;52.982;6.658;2023-05-10T13:20:28;19.40;;;9.43;;
58864;SDS011;45702;52.982;6.658;2023-05-10T13:22:55;18.48;;;9.15;;
58864;SDS011;45702;52.982;6.658;2023-05-10T13:25:20;21.23;;;10.10;;
58864;SDS011;45702;52.982;6.658;2023-05-10T13:27:46;22.73;;;9.98;;
58864;SDS011;45702;52.982;6.658;2023-05-10T13:30:12;24.77;;;10.70;;
58864;SDS011;45702;52.982;6.658;2023-05-10T13:32:37;20.40;;;9.52;;
58864;SDS011;45702;52.982;6.658;2023-05-10T13:35:04;21.70;;;9.93;;
58864;SDS011;45702;52.982;6.658;2023-05-10T13:37:30;18.60;;;8.63;;
58864;SDS011;45702;52.982;6.658;2023-05-10T13:39:57;21.13;;;9.45;;
58864;SDS011;45702;52.982;6.658;2023-05-10T13:42:22;17.92;;;8.75;;
58864;SDS011;45702;52.982;6.658;2023-05-10T13:44:49;19.05;;;9.05;;
58864;SDS011;45702;52.982;6.658;2023-05-10T13:47:15;19.88;;;9.43;;
58864;SDS011;45702;52.982;6.658;2023-05-10T13:49:41;18.95;;;9.10;;
58864;SDS011;45702;52.982;6.658;2023-05-10T13:52:07;19.17;;;8.90;;
58864;SDS011;45702;52.982;6.658;2023-05-10T13:54:35;19.30;;;9.15;;
58864;SDS011;45702;52.982;6.658;2023-05-10T13:57:01;17.88;;;8.80;;
58864;SDS011;45702;52.982;6.658;2023-05-10T13:59:28;20.40;;;8.82;;
58864;SDS011;45702;52.982;6.658;2023-05-10T14:01:54;20.20;;;9.95;;
58864;SDS011;45702;52.982;6.658;2023-05-10T14:04:19;19.23;;;9.38;;
58864;SDS011;45702;52.982;6.658;2023-05-10T14:06:45;19.85;;;8.68;;
58864;SDS011;45702;52.982;6.658;2023-05-10T14:09:11;20.50;;;9.52;;
58864;SDS011;45702;52.982;6.658;2023-05-10T14:11:37;20.08;;;8.85;;
58864;SDS011;45702;52.982;6.658;2023-05-10T14:14:06;18.65;;;8.68;;
58864;SDS011;45702;52.982;6.658;2023-05-10T14:16:32;24.42;;;11.73;;
58864;SDS011;45702;52.982;6.658;2023-05-10T14:18:58;20.50;;;10.68;;
58864;SDS011;45702;52.982;6.658;2023-05-10T14:21:24;21.30;;;10.15;;
58864;SDS011;45702;52.982;6.658;2023-05-10T14:23:50;21.58;;;9.68;;
58864;SDS011;45702;52.982;6.658;2023-05-10T14:26:15;22.70;;;10.18;;
58864;SDS011;45702;52.982;6.658;2023-05-10T14:28:42;20.75;;;9.55;;
58864;SDS011;45702;52.982;6.658;2023-05-10T14:31:08;21.63;;;10.15;;
58864;SDS011;45702;52.982;6.658;2023-05-10T14:33:34;25.40;;;9.35;;
58864;SDS011;45702;52.982;6.658;2023-05-10T14:35:59;18.48;;;9.85;;
58864;SDS011;45702;52.982;6.658;2023-05-10T14:38:25;35.05;;;12.15;;
58864;SDS011;45702;52.982;6.658;2023-05-10T14:40:51;21.13;;;10.07;;
58864;SDS011;45702;52.982;6.658;2023-05-10T14:43:17;21.55;;;10.20;;
58864;SDS011;45702;52.982;6.658;2023-05-10T14:45:43;17.77;;;8.90;;
58864;SDS011;45702;52.982;6.658;2023-05-10T14:48:10;18.13;;;8.93;;
58864;SDS011;45702;52.982;6.658;2023-05-10T14:50:40;16.63;;;8.50;;
58864;SDS011;45702;52.982;6.658;2023-05-10T14:53:06;21.98;;;9.50;;
58864;SDS011;45702;52.982;6.658;2023-05-10T14:55:32;18.15;;;9.25;;
58864;SDS011;45702;52.982;6.658;2023-05-10T14:57:57;18.85;;;8.27;;
58864;SDS011;45702;52.982;6.658;2023-05-10T15:00:23;19.90;;;8.90;;
58864;SDS011;45702;52.982;6.658;2023-05-10T15:02:49;20.73;;;9.30;;
58864;SDS011;45702;52.982;6.658;2023-05-10T15:05:15;17.60;;;9.23;;
58864;SDS011;45702;52.982;6.658;2023-05-10T15:07:40;18.23;;;8.90;;
58864;SDS011;45702;52.982;6.658;2023-05-10T15:10:08;19.50;;;9.07;;